createdAt,value
2023-03-29T00:01:36.049Z,1.80
2023-03-29T00:04:04.777Z,2.20
2023-03-29T00:06:32.559Z,2.10
2023-03-29T00:09:01.278Z,1.90
2023-03-29T00:11:32.012Z,2.10
2023-03-29T00:13:59.098Z,2.90
2023-03-29T00:16:26.210Z,2.80
2023-03-29T00:18:53.458Z,2.00
2023-03-29T00:21:20.721Z,2.60
2023-03-29T00:23:47.634Z,2.40
2023-03-29T00:26:14.463Z,2.30
2023-03-29T00:28:46.139Z,2.00
2023-03-29T00:31:14.931Z,2.10
2023-03-29T00:33:42.047Z,3.10
2023-03-29T00:36:12.143Z,3.90
2023-03-29T00:38:41.293Z,5.90
2023-03-29T00:41:08.484Z,3.60
2023-03-29T00:44:29.281Z,3.20
2023-03-29T00:46:56.129Z,2.80
2023-03-29T00:49:23.060Z,2.60
2023-03-29T00:51:50.142Z,2.50
2023-03-29T00:54:19.066Z,2.30
2023-03-29T00:56:47.620Z,2.40
2023-03-29T00:59:19.137Z,3.20
2023-03-29T01:02:01.873Z,2.60
2023-03-29T01:04:47.501Z,3.20
2023-03-29T01:07:18.179Z,2.90
2023-03-29T01:09:51.328Z,4.30
2023-03-29T01:12:20.770Z,4.30
2023-03-29T01:14:51.574Z,4.00
2023-03-29T01:17:21.388Z,3.70
2023-03-29T01:19:53.330Z,3.40
2023-03-29T01:22:33.613Z,3.20
2023-03-29T01:25:03.438Z,4.20
2023-03-29T01:28:02.692Z,2.90
2023-03-29T01:30:36.769Z,3.30
2023-03-29T01:33:12.599Z,3.30
2023-03-29T01:35:44.977Z,3.20
2023-03-29T01:38:19.049Z,3.10
2023-03-29T01:40:46.215Z,3.80
2023-03-29T01:43:19.406Z,3.40
2023-03-29T01:46:15.463Z,3.40
2023-03-29T01:48:54.142Z,2.50
2023-03-29T01:51:46.371Z,3.30
2023-03-29T01:54:20.107Z,4.00
2023-03-29T01:56:48.507Z,3.70
2023-03-29T01:59:18.267Z,3.50
2023-03-29T02:01:48.658Z,3.40
2023-03-29T02:04:20.659Z,4.60
2023-03-29T02:06:53.651Z,5.00
2023-03-29T02:09:20.790Z,5.00
2023-03-29T02:11:47.929Z,5.50
2023-03-29T02:14:17.624Z,5.60
2023-03-29T02:16:45.862Z,5.90
2023-03-29T02:19:12.859Z,5.70
2023-03-29T02:21:51.235Z,4.70
2023-03-29T02:24:20.075Z,4.90
2023-03-29T02:26:56.598Z,4.40
2023-03-29T02:29:23.643Z,4.80
2023-03-29T02:31:57.646Z,5.10
2023-03-29T02:34:38.549Z,6.20
2023-03-29T02:37:09.901Z,8.20
2023-03-29T02:39:37.674Z,7.80
2023-03-29T02:42:05.597Z,8.70
2023-03-29T02:44:35.997Z,8.10
2023-03-29T02:47:15.050Z,6.80
2023-03-29T02:49:42.597Z,5.60
2023-03-29T02:52:18.887Z,5.40
2023-03-29T02:54:46.137Z,4.40
2023-03-29T02:57:21.805Z,5.20
2023-03-29T02:59:48.936Z,5.80
2023-03-29T03:02:17.057Z,5.50
2023-03-29T03:04:44.599Z,5.60
2023-03-29T03:07:13.581Z,6.90
2023-03-29T03:09:41.253Z,6.20
2023-03-29T03:12:10.197Z,6.00
2023-03-29T03:14:38.067Z,6.30
2023-03-29T03:17:06.136Z,7.40
2023-03-29T03:19:38.867Z,6.90
2023-03-29T03:22:08.343Z,6.10
2023-03-29T03:24:36.950Z,5.70
2023-03-29T03:27:04.488Z,6.00
2023-03-29T03:29:31.776Z,7.00
2023-03-29T03:32:17.070Z,8.00
2023-03-29T03:35:05.104Z,7.10
2023-03-29T03:37:32.105Z,7.60
2023-03-29T03:39:59.304Z,7.40
2023-03-29T03:42:30.407Z,7.70
2023-03-29T03:44:58.188Z,7.10
2023-03-29T03:47:31.674Z,7.80
2023-03-29T03:50:08.007Z,7.40
2023-03-29T03:52:35.737Z,7.20
2023-03-29T03:55:09.084Z,7.80
2023-03-29T03:57:47.440Z,7.50
2023-03-29T04:00:18.650Z,9.60
2023-03-29T04:02:53.804Z,10.70
2023-03-29T04:05:22.620Z,10.00
2023-03-29T04:07:49.579Z,12.10
2023-03-29T04:10:22.866Z,12.10
2023-03-29T04:13:10.032Z,10.70
2023-03-29T04:15:57.191Z,9.70
2023-03-29T04:18:27.008Z,7.30
2023-03-29T04:20:57.013Z,8.20
2023-03-29T04:23:24.632Z,9.80
2023-03-29T04:25:56.076Z,10.60
2023-03-29T04:28:37.840Z,12.80
2023-03-29T04:31:32.668Z,14.20
2023-03-29T04:34:35.081Z,13.00
2023-03-29T04:37:09.901Z,15.20
2023-03-29T04:39:37.292Z,12.10
2023-03-29T04:42:05.278Z,10.70
2023-03-29T04:44:36.404Z,10.10
2023-03-29T04:47:04.824Z,7.70
2023-03-29T04:49:53.652Z,7.50
2023-03-29T04:52:32.741Z,7.30
2023-03-29T04:55:09.814Z,7.10
2023-03-29T04:58:16.702Z,8.10
2023-03-29T05:00:45.448Z,9.10
2023-03-29T05:03:22.076Z,7.00
2023-03-29T05:05:54.520Z,7.80
2023-03-29T05:08:21.531Z,7.80
2023-03-29T05:11:17.742Z,8.40
2023-03-29T05:13:44.845Z,7.00
2023-03-29T05:16:15.501Z,6.70
2023-03-29T05:18:42.823Z,6.90
2023-03-29T05:21:10.051Z,5.70
2023-03-29T05:23:39.044Z,4.70
2023-03-29T05:26:32.003Z,3.60
2023-03-29T05:29:02.147Z,2.50
2023-03-29T05:31:29.443Z,2.60
2023-03-29T05:33:56.570Z,2.30
2023-03-29T05:36:24.339Z,1.50
2023-03-29T05:38:51.698Z,1.70
2023-03-29T05:41:24.410Z,1.60
2023-03-29T05:44:11.622Z,0.90
2023-03-29T05:46:42.142Z,1.10
2023-03-29T05:49:11.715Z,0.70
2023-03-29T05:52:03.827Z,1.20
2023-03-29T05:54:50.534Z,1.30
2023-03-29T05:57:39.969Z,1.60
2023-03-29T06:00:33.905Z,1.20
2023-03-29T06:03:52.124Z,1.10
2023-03-29T06:06:39.385Z,1.20
2023-03-29T06:17:03.699Z,0.90
2023-03-29T06:19:38.694Z,1.20
2023-03-29T06:26:41.574Z,1.30
2023-03-29T06:29:10.876Z,1.20
2023-03-29T06:31:47.203Z,1.70
2023-03-29T06:36:23.404Z,1.30
2023-03-29T06:39:24.996Z,1.30
2023-03-29T06:47:35.421Z,1.10
2023-03-29T06:50:27.109Z,1.50
2023-03-29T07:15:49.800Z,1.50
2023-03-29T07:28:49.412Z,2.00
2023-03-29T07:38:05.057Z,1.40
2023-03-29T07:44:32.904Z,1.50
2023-03-29T07:47:54.249Z,1.40
2023-03-29T07:50:26.032Z,1.20
2023-03-29T07:53:05.718Z,1.40
2023-03-29T07:56:09.615Z,1.40
2023-03-29T07:59:09.638Z,2.60
2023-03-29T08:01:48.775Z,2.50
2023-03-29T08:05:26.057Z,1.30
2023-03-29T08:08:43.287Z,1.60
2023-03-29T08:23:31.546Z,1.50
2023-03-29T08:26:20.340Z,0.80
2023-03-29T08:29:01.410Z,1.10
2023-03-29T08:31:49.582Z,0.60
2023-03-29T08:34:20.111Z,2.60
2023-03-29T08:37:18.424Z,1.40
2023-03-29T08:39:49.605Z,1.30
2023-03-29T08:43:00.908Z,1.40
2023-03-29T08:45:34.924Z,1.20
2023-03-29T08:48:30.088Z,1.00
2023-03-29T08:51:30.580Z,0.80
2023-03-29T08:54:28.574Z,0.70
2023-03-29T08:57:17.932Z,1.10
2023-03-29T08:59:52.608Z,0.90
2023-03-29T09:02:36.808Z,0.90
2023-03-29T09:05:20.072Z,0.90
2023-03-29T09:07:58.492Z,1.30
2023-03-29T09:10:36.162Z,1.20
2023-03-29T09:13:31.504Z,1.10
2023-03-29T09:16:24.024Z,1.30
2023-03-29T09:19:06.106Z,1.20
2023-03-29T09:21:49.109Z,1.00
2023-03-29T09:25:09.356Z,1.20
2023-03-29T09:27:46.856Z,0.70
2023-03-29T09:30:43.124Z,0.90
2023-03-29T09:33:56.620Z,0.90
2023-03-29T09:37:03.235Z,1.10
2023-03-29T09:39:36.353Z,1.20
2023-03-29T09:42:09.348Z,1.30
2023-03-29T09:44:44.659Z,1.30
2023-03-29T09:47:27.147Z,1.50
2023-03-29T09:49:57.569Z,1.50
2023-03-29T09:52:25.630Z,2.90
2023-03-29T09:55:10.624Z,2.10
2023-03-29T09:58:07.985Z,1.30
2023-03-29T10:00:41.146Z,0.80
2023-03-29T10:03:33.461Z,1.50
2023-03-29T10:06:10.630Z,1.20
2023-03-29T10:08:44.380Z,1.70
2023-03-29T10:11:22.946Z,1.40
2023-03-29T10:14:07.901Z,1.80
2023-03-29T10:16:40.744Z,2.10
2023-03-29T10:19:43.396Z,2.60
2023-03-29T10:22:25.003Z,1.90
2023-03-29T10:24:58.392Z,1.60
2023-03-29T10:27:28.872Z,1.90
2023-03-29T10:30:07.009Z,1.60
2023-03-29T10:40:49.053Z,2.50
2023-03-29T10:44:16.040Z,2.10
2023-03-29T10:47:40.547Z,2.80
2023-03-29T10:50:22.396Z,1.80
2023-03-29T10:53:01.767Z,2.10
2023-03-29T10:56:33.134Z,2.10
2023-03-29T10:59:17.699Z,2.30
2023-03-29T11:05:53.057Z,3.70
2023-03-29T11:08:57.262Z,2.60
2023-03-29T11:14:26.273Z,2.90
2023-03-29T11:17:17.467Z,2.30
2023-03-29T11:20:33.930Z,2.20
2023-03-29T11:23:37.125Z,2.30
2023-03-29T11:26:30.659Z,3.30
2023-03-29T11:29:16.846Z,3.90
2023-03-29T11:32:21.619Z,3.90
2023-03-29T11:36:34.192Z,3.60
2023-03-29T11:39:39.133Z,3.70
2023-03-29T11:42:17.379Z,2.80
2023-03-29T11:44:46.943Z,3.00
2023-03-29T11:47:36.665Z,2.90
2023-03-29T11:50:06.091Z,1.90
2023-03-29T11:52:37.789Z,3.20
2023-03-29T11:55:07.707Z,3.10
2023-03-29T11:57:42.235Z,5.70
2023-03-29T12:00:38.038Z,3.70
2023-03-29T12:03:14.338Z,4.60
2023-03-29T12:05:52.118Z,4.20
2023-03-29T12:08:26.400Z,4.10
2023-03-29T12:11:24.633Z,4.10
2023-03-29T12:13:58.532Z,3.60
2023-03-29T12:16:39.459Z,3.60
2023-03-29T12:19:21.521Z,4.40
2023-03-29T12:21:50.546Z,4.10
2023-03-29T12:24:19.689Z,4.90
2023-03-29T12:26:59.478Z,4.50
2023-03-29T12:29:36.014Z,5.30
2023-03-29T12:33:01.977Z,4.60
2023-03-29T12:35:56.542Z,4.60
2023-03-29T12:39:00.959Z,3.80
2023-03-29T12:41:55.380Z,3.90
2023-03-29T12:44:50.395Z,4.60
2023-03-29T12:48:04.237Z,5.60
2023-03-29T12:51:25.715Z,5.90
2023-03-29T12:53:54.209Z,6.20
2023-03-29T12:56:23.156Z,5.40
2023-03-29T12:59:32.553Z,6.10
2023-03-29T13:02:13.308Z,5.50
2023-03-29T13:04:43.484Z,4.80
2023-03-29T13:07:23.048Z,4.20
2023-03-29T13:09:57.658Z,4.50
2023-03-29T13:12:34.647Z,3.80
2023-03-29T13:15:17.865Z,5.40
2023-03-29T13:18:03.792Z,5.90
2023-03-29T13:28:44.996Z,6.40
2023-03-29T13:36:37.121Z,5.80
2023-03-29T13:39:19.093Z,4.30
2023-03-29T13:42:35.558Z,5.20
2023-03-29T13:45:47.531Z,5.10
2023-03-29T13:48:33.564Z,5.20
2023-03-29T13:51:18.732Z,5.50
2023-03-29T13:54:01.815Z,5.50
2023-03-29T14:11:36.013Z,3.60
2023-03-29T14:14:07.766Z,3.20
2023-03-29T14:16:42.671Z,4.00
2023-03-29T14:19:18.449Z,4.50
2023-03-29T14:21:48.215Z,4.50
2023-03-29T14:24:22.359Z,3.70
2023-03-29T14:26:51.080Z,3.90
2023-03-29T14:32:20.620Z,3.00
2023-03-29T14:34:49.988Z,3.60
2023-03-29T14:37:23.074Z,3.80
2023-03-29T14:39:51.344Z,3.60
2023-03-29T14:42:21.874Z,4.10
2023-03-29T14:44:55.008Z,3.70
2023-03-29T14:47:33.407Z,3.90
2023-03-29T14:50:01.924Z,3.50
2023-03-29T14:52:31.616Z,3.80
2023-03-29T14:55:01.056Z,3.80
2023-03-29T14:57:34.404Z,3.70
2023-03-29T15:00:38.154Z,2.60
2023-03-29T15:03:13.822Z,4.50
2023-03-29T15:05:47.756Z,3.70
2023-03-29T15:08:31.066Z,3.70
2023-03-29T15:10:59.583Z,3.10
2023-03-29T15:13:28.660Z,4.20
2023-03-29T15:16:00.867Z,3.00
2023-03-29T15:18:58.713Z,3.30
2023-03-29T15:21:32.409Z,3.60
2023-03-29T15:24:04.998Z,2.70
2023-03-29T15:26:38.535Z,3.50
2023-03-29T15:29:23.806Z,3.20
2023-03-29T15:31:59.891Z,3.50
2023-03-29T15:34:31.591Z,3.10
2023-03-29T15:37:02.710Z,3.10
2023-03-29T15:39:32.539Z,3.90
2023-03-29T15:42:01.467Z,3.60
2023-03-29T15:44:33.343Z,4.00
2023-03-29T15:47:01.773Z,3.80
2023-03-29T15:49:30.432Z,3.40
2023-03-29T15:51:59.745Z,3.40
2023-03-29T15:54:29.256Z,3.60
2023-03-29T15:57:07.402Z,3.50
2023-03-29T15:59:36.680Z,3.10
2023-03-29T16:02:06.454Z,3.00
2023-03-29T16:04:35.130Z,3.30
2023-03-29T16:07:07.564Z,2.60
2023-03-29T16:09:38.550Z,2.80
2023-03-29T16:12:14.248Z,3.40
2023-03-29T16:15:18.951Z,3.50
2023-03-29T16:17:47.807Z,3.30
2023-03-29T16:20:25.121Z,3.10
2023-03-29T16:22:55.308Z,3.80
2023-03-29T16:25:24.362Z,3.50
2023-03-29T16:30:52.399Z,5.00
2023-03-29T16:34:03.342Z,4.50
2023-03-29T16:40:58.702Z,5.40
2023-03-29T16:57:17.540Z,4.20
2023-03-29T16:59:47.929Z,4.00
2023-03-29T17:02:24.166Z,3.50
2023-03-29T17:05:00.572Z,3.60
2023-03-29T17:07:31.384Z,3.90
2023-03-29T17:09:59.886Z,3.60
2023-03-29T17:12:31.308Z,2.80
2023-03-29T17:14:59.895Z,3.40
2023-03-29T17:17:32.803Z,3.20
2023-03-29T17:20:02.677Z,3.80
2023-03-29T17:22:31.661Z,3.40
2023-03-29T17:25:00.716Z,3.80
2023-03-29T17:27:30.860Z,4.30
2023-03-29T17:30:06.291Z,4.60
2023-03-29T17:36:24.752Z,4.10
2023-03-29T17:39:02.876Z,4.50
2023-03-29T17:41:58.514Z,5.00
2023-03-29T17:48:43.656Z,5.30
2023-03-29T17:51:11.660Z,5.60
2023-03-29T17:53:41.370Z,5.90
2023-03-29T17:56:13.088Z,6.10
2023-03-29T17:58:42.710Z,4.20
2023-03-29T18:01:24.335Z,4.30
2023-03-29T18:03:55.114Z,4.90
2023-03-29T18:06:22.846Z,4.80
2023-03-29T18:08:56.656Z,3.90
2023-03-29T18:11:25.274Z,5.00
2023-03-29T18:13:54.868Z,4.20
2023-03-29T18:16:26.695Z,3.60
2023-03-29T18:18:57.917Z,3.60
2023-03-29T18:21:27.115Z,4.30
2023-03-29T18:23:56.807Z,3.90
2023-03-29T18:26:24.640Z,4.00
2023-03-29T18:28:53.999Z,3.70
2023-03-29T18:31:33.508Z,4.90
2023-03-29T18:34:00.683Z,4.10
2023-03-29T18:36:31.786Z,3.60
2023-03-29T18:39:04.872Z,4.20
2023-03-29T18:41:37.293Z,3.90
2023-03-29T18:44:39.711Z,3.30
2023-03-29T18:47:11.713Z,3.70
2023-03-29T18:50:06.733Z,2.80
2023-03-29T18:59:56.632Z,3.00
2023-03-29T19:02:25.039Z,3.90
2023-03-29T19:04:52.453Z,2.90
2023-03-29T19:07:21.531Z,3.10
2023-03-29T19:09:51.174Z,3.70
2023-03-29T19:12:18.313Z,3.40
2023-03-29T19:14:49.525Z,3.00
2023-03-29T19:17:16.417Z,3.00
2023-03-29T19:19:43.737Z,3.90
2023-03-29T19:22:10.632Z,3.00
2023-03-29T19:24:38.508Z,3.70
2023-03-29T19:27:12.052Z,3.10
2023-03-29T19:29:40.647Z,3.10
2023-03-29T19:32:08.318Z,4.00
2023-03-29T19:34:36.108Z,4.10
2023-03-29T19:37:06.457Z,3.10
2023-03-29T19:39:35.355Z,3.40
2023-03-29T19:42:11.004Z,3.20
2023-03-29T19:44:38.096Z,2.90
2023-03-29T19:47:05.397Z,2.80
2023-03-29T19:49:36.567Z,2.90
2023-03-29T19:52:04.165Z,3.20
2023-03-29T19:54:31.884Z,3.60
2023-03-29T19:56:59.572Z,2.80
2023-03-29T19:59:27.545Z,3.50
2023-03-29T20:02:01.722Z,2.70
2023-03-29T20:04:36.021Z,3.00
2023-03-29T20:07:04.113Z,2.90
2023-03-29T20:09:32.192Z,2.80
2023-03-29T20:12:03.506Z,2.80
2023-03-29T20:14:32.048Z,2.50
2023-03-29T20:16:59.119Z,2.70
2023-03-29T20:19:26.445Z,2.70
2023-03-29T20:21:56.789Z,2.30
2023-03-29T20:24:24.176Z,2.20
2023-03-29T20:26:51.416Z,2.30
2023-03-29T20:29:21.657Z,3.10
2023-03-29T20:31:48.853Z,2.80
2023-03-29T20:34:18.397Z,2.60
2023-03-29T20:36:46.404Z,2.80
2023-03-29T20:39:17.707Z,2.40
2023-03-29T20:41:46.989Z,2.50
2023-03-29T20:44:16.481Z,3.30
2023-03-29T20:47:01.940Z,2.50
2023-03-29T20:49:36.574Z,2.50
2023-03-29T20:52:14.935Z,2.50
2023-03-29T20:54:43.060Z,2.20
2023-03-29T20:57:13.624Z,2.60
2023-03-29T20:59:42.375Z,2.40
2023-03-29T21:02:13.438Z,2.90
2023-03-29T21:04:44.910Z,2.90
2023-03-29T21:07:16.935Z,2.50
2023-03-29T21:09:44.262Z,2.80
2023-03-29T21:12:12.881Z,2.90
2023-03-29T21:14:41.029Z,2.40
2023-03-29T21:17:09.051Z,2.60
2023-03-29T21:19:38.565Z,2.30
2023-03-29T21:22:05.646Z,4.50
2023-03-29T21:24:50.719Z,2.60
2023-03-29T21:27:17.872Z,3.00
2023-03-29T21:29:49.019Z,2.50
2023-03-29T21:32:15.976Z,2.30
2023-03-29T21:34:43.119Z,3.00
2023-03-29T21:37:12.268Z,2.80
2023-03-29T21:39:41.499Z,2.80
2023-03-29T21:42:08.339Z,2.80
2023-03-29T21:44:35.369Z,2.80
2023-03-29T21:47:02.177Z,2.60
2023-03-29T21:49:29.288Z,2.40
2023-03-29T21:51:56.366Z,3.10
2023-03-29T21:54:23.581Z,2.90
2023-03-29T21:56:50.609Z,2.70
2023-03-29T21:59:17.528Z,2.90
2023-03-29T22:01:44.593Z,2.60
2023-03-29T22:04:14.274Z,2.60
2023-03-29T22:06:47.418Z,2.40
2023-03-29T22:09:15.552Z,2.30
2023-03-29T22:11:44.204Z,2.30
2023-03-29T22:14:15.768Z,2.30
2023-03-29T22:16:45.013Z,2.60
2023-03-29T22:19:12.183Z,2.70
2023-03-29T22:21:44.191Z,2.60
2023-03-29T22:24:11.452Z,2.20
2023-03-29T22:26:39.108Z,2.70
2023-03-29T22:29:07.800Z,2.30
2023-03-29T22:31:38.899Z,2.20
2023-03-29T22:34:05.990Z,2.40
2023-03-29T22:36:35.562Z,2.50
2023-03-29T22:39:03.542Z,3.00
2023-03-29T22:41:31.585Z,2.60
2023-03-29T22:44:00.671Z,2.80
2023-03-29T22:46:28.042Z,2.50
2023-03-29T22:48:55.251Z,3.20
2023-03-29T22:51:23.168Z,2.80
2023-03-29T22:53:50.438Z,2.10
2023-03-29T22:56:17.312Z,2.40
2023-03-29T22:58:45.205Z,2.70
2023-03-29T23:01:13.593Z,2.60
2023-03-29T23:03:40.460Z,2.80
2023-03-29T23:06:08.409Z,2.40
2023-03-29T23:08:36.704Z,3.00
2023-03-29T23:11:08.867Z,2.80
2023-03-29T23:13:41.213Z,3.00
2023-03-29T23:16:09.124Z,3.10
2023-03-29T23:18:37.057Z,2.40
2023-03-29T23:21:05.274Z,2.20
2023-03-29T23:23:33.107Z,2.90
2023-03-29T23:26:09.397Z,3.20
2023-03-29T23:30:19.924Z,2.80
2023-03-29T23:32:54.796Z,2.70
2023-03-29T23:35:23.500Z,3.30
2023-03-29T23:37:54.387Z,3.20
2023-03-29T23:40:22.614Z,3.20
2023-03-29T23:42:51.697Z,3.30
2023-03-29T23:45:19.912Z,2.70
2023-03-29T23:47:49.234Z,2.80
2023-03-29T23:50:19.221Z,3.00
2023-03-29T23:52:49.616Z,2.90
2023-03-29T23:55:18.042Z,3.20
2023-03-29T23:57:49.932Z,2.40
